Sharon, Pennsylvania
Current Conditions -  °F | °C
As of 3:51 PM on Friday 19 Dec 2014 (Local Time) from KYNG Reporting Station
Overcast Overcast  
Wind Chill: 23°   Ceiling: 2600
Heat Index: 30°   Visibility: 10mi
Dew Point: 23°   Wind: 7mph
Humidity: 75%   Direction: 350°N
Pressure: 30.2"   Gusts: NA
Location:  41.23°N, 80.5°W
Report Text: KYNG 192051Z 35006KT 10SM OVC026 M01/M05 A3020 RMK AO2 SLP240 T10111050 53003
Loading
Personal Weather Stations






























Interactive Weather Map New forecast layout! Learn more

10-Day Weather Forecast

Advertisements
Track Severe Weather on mobile